Time;durP1;ratioP1;P1;durP2;ratioP2;P2;SDS_P1;SDS_P2;PMS_P1;PMS_P2;Temp;Humidity;BMP_temperature;BMP_pressure;BME280_temperature;BME280_humidity;BME280_pressure;Samples;Min_cycle;Max_cycle;Signal;HPM_P1;HPM_P2
2022/01/12 00:00:22;;;;;;;;;;;;;;;20.45;39.52;103371.34;4987309;28;19942;-82
2022/01/12 00:02:47;;;;;;;;;;;;;;;20.45;39.60;103374.09;4978795;28;20013;-85
2022/01/12 00:05:14;;;;;;;;;;;;;;;20.44;39.73;103372.44;4974085;28;20309;-83
2022/01/12 00:07:39;;;;;;;;;;;;;;;20.45;39.33;103382.34;4977948;28;19930;-85
2022/01/12 00:10:05;;;;;;;;;;;;;;;20.45;39.34;103393.31;4983048;28;19932;-88
2022/01/12 00:12:30;;;;;;;;;;;;;;;20.45;39.34;103393.31;4991886;28;19936;-90
2022/01/12 00:14:55;;;;;;;;;;;;;;;20.45;39.60;103393.31;4981251;28;20448;-92
2022/01/12 00:17:20;;;;;;;;;;;;;;;20.45;39.36;103385.06;4973491;28;20008;-84
2022/01/12 00:19:46;;;;;;;;;;;;;;;20.45;39.52;103391.41;4978854;28;19925;-82
2022/01/12 00:22:12;;;;;;;;;;;;;;;20.45;39.49;103401.56;4983938;28;19922;-85
2022/01/12 00:25:03;;;;;;;;;;;;;;;20.46;39.36;103406.81;4971603;28;19926;-82
2022/01/12 00:33:13;;;;;;;;;;;;;;;20.44;39.56;103411.72;4973590;28;19929;-85
2022/01/12 00:35:40;;;;;;;;;;;;;;;20.45;39.28;103420.78;4996431;28;20089;-85
2022/01/12 00:38:05;;;;;;;;;;;;;;;20.44;39.34;103416.38;4986550;28;20404;-84
2022/01/12 00:40:30;;;;;;;;;;;;;;;20.43;39.32;103426.50;4982974;28;19923;-87
2022/01/12 00:42:56;;;;;;;;;;;;;;;20.43;39.36;103433.91;4988426;28;20008;-85
2022/01/12 00:45:21;;;;;;;;;;;;;;;20.43;39.41;103436.66;4986322;28;19940;-83
2022/01/12 00:47:47;;;;;;;;;;;;;;;20.43;39.29;103436.66;4985175;28;19977;-85
2022/01/12 00:50:12;;;;;;;;;;;;;;;20.42;39.52;103441.31;4997713;28;20028;-83
2022/01/12 00:52:37;;;;;;;;;;;;;;;20.42;39.25;103440.47;4980571;28;19918;-83
2022/01/12 00:55:03;;;;;;;;;;;;;;;20.41;39.43;103438.78;4976916;28;19961;-83
2022/01/12 00:57:28;;;;;;;;;;;;;;;20.41;39.54;103433.31;4973956;28;20462;-83
2022/01/12 00:59:53;;;;;;;;;;;;;;;20.40;39.57;103428.91;4984040;28;20405;-82
2022/01/12 01:02:18;;;;;;;;;;;;;;;20.40;39.23;103427.00;5003104;28;19937;-83
2022/01/12 01:04:44;;;;;;;;;;;;;;;20.39;39.38;103430.81;4990742;28;19984;-83
2022/01/12 01:07:09;;;;;;;;;;;;;;;20.39;39.24;103430.81;4993696;28;19926;-84
2022/01/12 01:09:38;;;;;;;;;;;;;;;20.37;39.39;103430.22;4974809;28;19978;-86
2022/01/12 01:12:04;;;;;;;;;;;;;;;20.38;39.44;103431.88;4981343;28;19926;-83
2022/01/12 01:14:59;;;;;;;;;;;;;;;20.38;39.21;103420.06;4983970;28;20398;-82
2022/01/12 01:25:36;;;;;;;;;;;;;;;20.36;39.37;103433.19;4989291;28;19925;-78
2022/01/12 01:28:02;;;;;;;;;;;;;;;20.35;39.51;103437.03;4992324;28;19922;-78
2022/01/12 01:30:27;;;;;;;;;;;;;;;20.36;39.24;103441.44;4992090;28;20053;-78
2022/01/12 01:32:54;;;;;;;;;;;;;;;20.34;39.36;103440.88;4982495;28;20008;-78
2022/01/12 01:35:19;;;;;;;;;;;;;;;20.33;39.10;103437.25;4991932;28;20016;-78
2022/01/12 01:37:44;;;;;;;;;;;;;;;20.31;39.13;103451.25;4995572;28;20385;-78
2022/01/12 01:40:11;;;;;;;;;;;;;;;20.31;39.11;103450.44;4992710;28;19922;-78
2022/01/12 01:53:28;;;;;;;;;;;;;;;20.25;39.14;103427.50;4992386;28;19967;-78
2022/01/12 01:55:53;;;;;;;;;;;;;;;20.23;39.05;103418.69;4995079;28;19961;-79
2022/01/12 01:58:18;;;;;;;;;;;;;;;20.22;39.16;103414.28;4995542;28;19975;-78
2022/01/12 02:00:44;;;;;;;;;;;;;;;20.22;38.96;103416.19;4992667;28;19925;-78
2022/01/12 02:03:09;;;;;;;;;;;;;;;20.20;38.93;103410.94;4995816;28;20298;-79
2022/01/12 02:05:37;;;;;;;;;;;;;;;20.19;39.02;103420.25;4994886;28;19930;-78
2022/01/12 02:08:03;;;;;;;;;;;;;;;20.17;39.11;103416.91;4995331;28;19929;-79
2022/01/12 02:10:28;;;;;;;;;;;;;;;20.17;39.11;103414.16;4995195;28;19921;-79
2022/01/12 02:12:53;;;;;;;;;;;;;;;20.15;39.12;103413.56;4985113;28;20429;-80
2022/01/12 02:15:22;;;;;;;;;;;;;;;20.14;39.09;103417.41;4995074;28;20418;-78
2022/01/12 02:18:01;;;;;;;;;;;;;;;20.13;39.16;103426.69;4994403;28;19918;-78
2022/01/12 02:39:50;;;;;;;;;;;;;;;20.05;38.99;103457.25;4994486;28;19928;-78
2022/01/12 02:40:06;;;;;;;;;;;;;;;20.03;38.80;103454.78;4993862;28;20334;-79
2022/01/12 02:42:32;;;;;;;;;;;;;;;20.02;38.97;103464.06;4993198;28;19933;-78
2022/01/12 02:50:42;;;;;;;;;;;;;;;19.99;38.96;103469.22;4994986;28;19940;-78
2022/01/12 02:55:51;;;;;;;;;;;;;;;19.98;38.81;103478.50;4994334;28;19949;-78
2022/01/12 02:58:16;;;;;;;;;;;;;;;19.97;39.00;103479.59;4993280;28;19962;-79
2022/01/12 03:03:29;;;;;;;;;;;;;;;19.95;38.81;103487.22;4991419;28;20349;-78
2022/01/12 03:05:59;;;;;;;;;;;;;;;19.95;38.91;103501.75;4993947;28;20290;-78
2022/01/12 03:08:26;;;;;;;;;;;;;;;19.92;38.92;103507.72;4993459;28;19926;-78
2022/01/12 03:10:52;;;;;;;;;;;;;;;19.92;38.87;103501.41;4993929;28;19961;-78
2022/01/12 03:13:17;;;;;;;;;;;;;;;19.91;38.95;103505.22;4994064;28;19922;-78
2022/01/12 03:15:43;;;;;;;;;;;;;;;19.89;38.86;103505.47;4988035;28;19944;-78
2022/01/12 03:18:09;;;;;;;;;;;;;;;19.89;38.97;103505.47;4992985;28;19922;-80
2022/01/12 03:20:34;;;;;;;;;;;;;;;19.88;38.99;103512.00;4993297;28;19932;-78
2022/01/12 03:22:59;;;;;;;;;;;;;;;19.87;38.76;103507.59;4993406;28;22013;-78
2022/01/12 03:25:25;;;;;;;;;;;;;;;19.87;38.68;103515.84;4988246;28;19925;-78
2022/01/12 03:27:51;;;;;;;;;;;;;;;19.86;38.65;103525.16;4992060;28;20393;-78
2022/01/12 03:30:16;;;;;;;;;;;;;;;19.85;38.83;103515.22;4994148;28;19925;-78
2022/01/12 03:32:47;;;;;;;;;;;;;;;19.84;38.67;103505.34;4995914;28;19924;-78
2022/01/12 03:35:25;;;;;;;;;;;;;;;19.84;38.69;103510.84;4987326;28;20012;-79
2022/01/12 03:38:19;;;;;;;;;;;;;;;19.83;38.79;103509.16;4986647;28;19925;-78
2022/01/12 03:40:38;;;;;;;;;;;;;;;19.82;38.76;103513.81;4993589;28;19922;-78
2022/01/12 03:43:04;;;;;;;;;;;;;;;19.81;38.66;103516.81;4993013;28;19932;-78
2022/01/12 03:45:29;;;;;;;;;;;;;;;19.80;38.73;103513.19;4992324;28;19930;-78
2022/01/12 03:47:54;;;;;;;;;;;;;;;19.79;38.74;103508.81;4981989;28;20248;-80
2022/01/12 03:50:19;;;;;;;;;;;;;;;19.78;38.50;103529.09;4993586;28;19926;-78
2022/01/12 03:52:45;;;;;;;;;;;;;;;19.78;38.68;103528.22;5004950;28;20000;-79
2022/01/12 03:55:10;;;;;;;;;;;;;;;19.76;38.47;103531.22;4991776;28;19929;-78
2022/01/12 03:57:35;;;;;;;;;;;;;;;19.77;38.56;103537.53;4977462;28;20429;-79
2022/01/12 04:00:00;;;;;;;;;;;;;;;19.75;38.70;103536.94;5008042;28;19961;-79
2022/01/12 04:02:26;;;;;;;;;;;;;;;19.74;38.56;103533.34;4993509;28;19922;-79
2022/01/12 04:05:10;;;;;;;;;;;;;;;19.72;38.64;103529.19;4993198;28;19926;-78
2022/01/12 04:10:19;;;;;;;;;;;;;;;19.69;38.72;103530.50;4992980;28;19972;-78
2022/01/12 04:12:45;;;;;;;;;;;;;;;19.68;38.44;103534.31;4992837;28;20386;-78
2022/01/12 04:15:10;;;;;;;;;;;;;;;19.67;38.54;103530.72;4992387;28;20289;-79
2022/01/12 04:17:35;;;;;;;;;;;;;;;19.66;38.57;103534.50;4982865;28;19940;-78
2022/01/12 04:20:02;;;;;;;;;;;;;;;19.66;38.67;103533.69;4992512;28;19965;-78
2022/01/12 04:25:12;;;;;;;;;;;;;;;19.63;38.74;103529.50;4992225;28;20421;-78
2022/01/12 04:27:39;;;;;;;;;;;;;;;19.63;38.83;103536.88;4986865;28;19929;-79
2022/01/12 04:30:05;;;;;;;;;;;;;;;19.62;38.57;103532.47;4988079;28;19985;-78
2022/01/12 04:32:30;;;;;;;;;;;;;;;19.60;38.64;103527.22;4993035;28;19921;-78
2022/01/12 04:34:56;;;;;;;;;;;;;;;19.61;38.53;103539.03;4992224;28;20267;-78
2022/01/12 04:37:21;;;;;;;;;;;;;;;19.58;38.45;103534.88;4992111;28;20366;-78
2022/01/12 04:39:46;;;;;;;;;;;;;;;19.58;38.48;103532.13;4991859;28;20341;-78
2022/01/12 04:42:11;;;;;;;;;;;;;;;19.56;38.52;103523.28;5007418;28;20016;-78
2022/01/12 04:44:43;;;;;;;;;;;;;;;19.57;38.59;103521.38;4992189;28;19922;-78
2022/01/12 04:47:15;;;;;;;;;;;;;;;19.56;38.67;103522.47;4991563;28;20370;-78
2022/01/12 04:52:12;;;;;;;;;;;;;;;19.54;38.54;103516.38;4992223;28;19961;-79
2022/01/12 04:54:37;;;;;;;;;;;;;;;19.53;38.52;103512.81;4992901;28;20378;-79
2022/01/12 04:57:02;;;;;;;;;;;;;;;19.52;38.61;103507.53;4991545;28;19918;-79
2022/01/12 04:59:28;;;;;;;;;;;;;;;19.51;38.55;103514.09;4992122;28;19973;-78
2022/01/12 05:01:58;;;;;;;;;;;;;;;19.50;38.82;103512.41;4992774;28;20282;-79
2022/01/12 05:07:28;;;;;;;;;;;;;;;19.49;38.56;103519.00;4992138;28;19981;-78
2022/01/12 05:12:49;;;;;;;;;;;;;;;19.48;38.37;103514.56;4990089;28;20367;-79
2022/01/12 05:12:55;;;;;;;;;;;;;;;19.48;38.74;103525.53;4996648;28;19927;-79
2022/01/12 05:15:31;;;;;;;;;;;;;;;19.47;38.69;103527.44;4995853;28;19929;-79
2022/01/12 05:17:56;;;;;;;;;;;;;;;19.46;38.51;103523.03;4996131;28;19917;-79
2022/01/12 05:20:22;;;;;;;;;;;;;;;19.45;38.54;103533.16;4987234;28;20279;-79
2022/01/12 05:22:48;;;;;;;;;;;;;;;19.44;38.62;103527.91;4995374;28;19933;-80
2022/01/12 05:25:13;;;;;;;;;;;;;;;19.44;38.62;103528.75;4995726;28;19922;-79
2022/01/12 05:27:39;;;;;;;;;;;;;;;19.43;38.42;103529.81;4996185;28;20020;-78
2022/01/12 05:30:04;;;;;;;;;;;;;;;19.43;38.52;103527.09;4987343;28;19945;-78
2022/01/12 05:32:29;;;;;;;;;;;;;;;19.42;38.60;103533.63;4994604;28;19930;-79
2022/01/12 05:34:58;;;;;;;;;;;;;;;19.41;38.50;103534.69;4996237;28;19954;-79
2022/01/12 05:37:24;;;;;;;;;;;;;;;19.41;38.51;103536.59;4995300;28;19928;-78
2022/01/12 05:39:49;;;;;;;;;;;;;;;19.41;38.56;103544.84;4995109;28;20018;-79
2022/01/12 05:42:14;;;;;;;;;;;;;;;19.39;38.51;103536.00;4994144;28;19933;-78
2022/01/12 05:44:41;;;;;;;;;;;;;;;19.39;38.48;103547.78;4995912;28;20394;-79
2022/01/12 05:47:17;;;;;;;;;;;;;;;19.39;38.67;103546.97;4995436;28;19929;-79
2022/01/12 05:49:44;;;;;;;;;;;;;;;19.37;38.48;103538.97;4993955;28;19944;-78
2022/01/12 05:52:09;;;;;;;;;;;;;;;19.35;38.49;103535.66;4993436;28;19921;-78
2022/01/12 05:54:34;;;;;;;;;;;;;;;19.35;38.54;103541.13;4995447;28;19921;-79
2022/01/12 05:56:59;;;;;;;;;;;;;;;19.35;38.77;103549.34;4995850;28;19926;-78
2022/01/12 05:59:25;;;;;;;;;;;;;;;19.34;38.63;103544.91;4994768;28;20068;-78
2022/01/12 06:01:50;;;;;;;;;;;;;;;19.34;38.55;103552.31;4994513;28;19933;-79
2022/01/12 06:04:16;;;;;;;;;;;;;;;19.33;38.53;103554.22;4995007;28;19933;-79
2022/01/12 06:06:41;;;;;;;;;;;;;;;19.32;38.65;103560.75;4995226;28;19926;-79
2022/01/12 06:09:06;;;;;;;;;;;;;;;19.32;38.49;103560.75;4994331;28;19922;-79
2022/01/12 06:11:31;;;;;;;;;;;;;;;19.32;38.65;103565.41;4993317;28;19971;-82
2022/01/12 06:13:58;;;;;;;;;;;;;;;19.31;38.65;103574.72;4993902;28;19922;-79
2022/01/12 06:16:24;;;;;;;;;;;;;;;19.29;38.73;103569.44;4994030;28;20354;-79
2022/01/12 06:18:49;;;;;;;;;;;;;;;19.30;38.52;103575.75;4994950;28;20001;-79
2022/01/12 06:21:14;;;;;;;;;;;;;;;19.29;38.77;103583.16;4991869;28;19925;-78
2022/01/12 06:23:39;;;;;;;;;;;;;;;19.28;38.69;103589.72;4987086;28;19980;-79
2022/01/12 06:26:05;;;;;;;;;;;;;;;19.28;38.49;103597.06;4993643;28;19937;-79
2022/01/12 06:31:10;;;;;;;;;;;;;;;19.27;38.55;103599.00;4995433;28;20298;-79
2022/01/12 06:33:36;;;;;;;;;;;;;;;19.27;38.51;103592.69;4983675;28;19933;-79
2022/01/12 06:36:01;;;;;;;;;;;;;;;19.26;38.58;103597.31;4994243;28;19926;-79
2022/01/12 06:38:27;;;;;;;;;;;;;;;19.26;38.67;103599.25;5009452;28;19922;-79
2022/01/12 06:40:52;;;;;;;;;;;;;;;19.25;38.56;103606.59;4994288;28;20008;-79
2022/01/12 06:43:17;;;;;;;;;;;;;;;19.23;38.49;103604.09;4992994;28;19933;-78
2022/01/12 06:45:42;;;;;;;;;;;;;;;19.23;38.59;103615.06;4993963;28;20295;-79
2022/01/12 06:48:08;;;;;;;;;;;;;;;19.22;38.53;103613.38;4993559;28;19967;-79
2022/01/12 06:50:33;;;;;;;;;;;;;;;19.22;38.53;103612.56;4993906;28;20243;-79
2022/01/12 06:52:58;;;;;;;;;;;;;;;19.23;38.63;103614.25;4986875;28;20009;-79
2022/01/12 06:55:24;;;;;;;;;;;;;;;19.22;38.68;103612.56;4981828;28;20293;-79
2022/01/12 06:57:49;;;;;;;;;;;;;;;19.19;38.68;103619.34;4993622;28;20081;-80
2022/01/12 07:00:14;;;;;;;;;;;;;;;19.18;38.62;103614.94;4994614;28;20351;-80
2022/01/12 07:02:40;;;;;;;;;;;;;;;19.18;38.82;103609.44;4992351;28;19930;-77
2022/01/12 07:05:05;;;;;;;;;;;;;;;19.18;38.54;103620.41;4993478;28;19984;-76
2022/01/12 07:07:30;;;;;;;;;;;;;;;19.18;38.74;103623.16;4993861;28;19929;-78
2022/01/12 07:09:56;;;;;;;;;;;;;;;19.17;38.71;103626.94;4994170;28;19926;-79
2022/01/12 07:12:21;;;;;;;;;;;;;;;19.17;38.78;103634.31;4993555;28;19922;-78
2022/01/12 07:14:46;;;;;;;;;;;;;;;19.17;38.68;103637.06;4982988;28;19933;-78
2022/01/12 07:17:12;;;;;;;;;;;;;;;19.16;38.66;103632.66;4993153;28;20322;-79
2022/01/12 07:19:38;;;;;;;;;;;;;;;19.16;38.63;103630.75;4986871;28;19918;-78
2022/01/12 07:22:03;;;;;;;;;;;;;;;19.15;38.83;103636.47;4994448;28;19918;-78
2022/01/12 07:24:28;;;;;;;;;;;;;;;19.14;38.54;103638.38;4990535;28;19926;-78
2022/01/12 07:26:53;;;;;;;;;;;;;;;19.14;38.76;103643.00;4993726;28;19933;-78
2022/01/12 07:29:19;;;;;;;;;;;;;;;19.13;38.71;103644.94;4993053;28;19929;-79
2022/01/12 07:31:46;;;;;;;;;;;;;;;19.13;38.78;103655.06;4992088;28;20011;-78
2022/01/12 07:34:13;;;;;;;;;;;;;;;19.12;38.59;103664.31;4990204;28;19921;-78
2022/01/12 07:36:38;;;;;;;;;;;;;;;19.12;38.64;103667.06;4992844;28;19928;-79
2022/01/12 07:39:03;;;;;;;;;;;;;;;19.11;38.67;103668.13;4993508;28;19922;-78
2022/01/12 07:41:29;;;;;;;;;;;;;;;19.11;38.66;103673.63;5008272;28;19928;-80
2022/01/12 07:43:54;;;;;;;;;;;;;;;19.10;38.71;103680.16;5008687;28;20302;-81
2022/01/12 07:46:20;;;;;;;;;;;;;;;19.10;38.61;103685.63;4990221;28;19971;-78
2022/01/12 07:48:45;;;;;;;;;;;;;;;19.08;38.77;103691.34;4992441;28;20378;-80
2022/01/12 07:51:10;;;;;;;;;;;;;;;19.07;38.66;103689.66;4993414;28;20371;-78
2022/01/12 07:53:35;;;;;;;;;;;;;;;19.08;38.87;103688.63;4982149;28;20422;-76
2022/01/12 07:56:01;;;;;;;;;;;;;;;19.10;38.89;103699.31;4985784;28;19922;-80
2022/01/12 07:58:26;;;;;;;;;;;;;;;19.12;39.14;103710.91;4983336;28;19922;-80
2022/01/12 08:00:52;;;;;;;;;;;;;;;19.13;39.07;103710.69;4976788;28;19989;-86
2022/01/12 08:03:20;;;;;;;;;;;;;;;19.15;39.43;103715.91;4977803;28;19940;-79
2022/01/12 08:05:45;;;;;;;;;;;;;;;19.15;39.39;103719.53;4979410;28;19934;-81
2022/01/12 08:08:12;;;;;;;;;;;;;;;19.17;39.57;103728.31;4974842;28;20000;-81
2022/01/12 08:10:37;;;;;;;;;;;;;;;19.20;39.62;103729.78;4987273;28;19930;-83
2022/01/12 08:13:03;;;;;;;;;;;;;;;19.23;39.66;103732.06;4977361;28;19985;-78
2022/01/12 08:15:28;;;;;;;;;;;;;;;19.24;39.85;103734.56;4981056;28;19926;-84
2022/01/12 08:17:53;;;;;;;;;;;;;;;19.28;40.15;103737.72;4986103;28;19926;-84
2022/01/12 08:20:22;;;;;;;;;;;;;;;19.32;39.87;103732.59;4988586;28;19934;-82
2022/01/12 08:22:48;;;;;;;;;;;;;;;19.36;40.03;103736.56;4977849;28;20069;-81
2022/01/12 08:25:13;;;;;;;;;;;;;;;19.40;40.19;103735.03;4975746;28;20372;-81
2022/01/12 08:27:39;;;;;;;;;;;;;;;19.44;40.20;103730.75;4972328;28;19922;-80
2022/01/12 08:30:06;;;;;;;;;;;;;;;19.48;40.18;103732.00;4977184;28;19938;-83
2022/01/12 08:32:31;;;;;;;;;;;;;;;19.51;40.37;103730.69;4998914;28;20379;-78
2022/01/12 08:34:57;;;;;;;;;;;;;;;19.56;40.54;103745.38;4985401;28;19922;-79
2022/01/12 08:37:23;;;;;;;;;;;;;;;19.59;40.61;103738.59;4981562;28;19929;-80
2022/01/12 08:39:48;;;;;;;;;;;;;;;19.63;40.32;103740.66;4975839;28;20059;-83
2022/01/12 08:42:13;;;;;;;;;;;;;;;19.65;40.39;103730.28;4979111;28;19934;-77
2022/01/12 08:44:39;;;;;;;;;;;;;;;19.67;40.74;103735.56;4972090;28;19934;-81
2022/01/12 08:47:05;;;;;;;;;;;;;;;19.69;40.67;103743.56;4980587;28;19981;-81
2022/01/12 08:49:30;;;;;;;;;;;;;;;19.71;40.58;103730.47;4981752;28;20319;-82
2022/01/12 08:51:55;;;;;;;;;;;;;;;19.72;40.54;103734.88;4996197;28;20060;-82
2022/01/12 08:54:21;;;;;;;;;;;;;;;19.74;40.77;103743.72;4985659;28;19938;-82
2022/01/12 08:56:46;;;;;;;;;;;;;;;19.75;40.45;103759.91;4977992;28;20020;-81
2022/01/12 08:59:13;;;;;;;;;;;;;;;19.75;40.71;103765.41;4986848;28;19933;-81
2022/01/12 09:01:38;;;;;;;;;;;;;;;19.77;40.34;103785.22;4982359;28;19922;-82
2022/01/12 09:04:04;;;;;;;;;;;;;;;19.78;40.63;103784.16;4991755;28;20397;-81
2022/01/12 09:06:29;;;;;;;;;;;;;;;19.79;40.33;103776.75;4975038;28;19922;-80
2022/01/12 09:08:54;;;;;;;;;;;;;;;19.81;40.37;103788.34;4978736;28;19926;-84
2022/01/12 09:11:20;;;;;;;;;;;;;;;19.81;40.47;103783.69;4980356;28;19926;-84
2022/01/12 09:13:46;;;;;;;;;;;;;;;19.82;40.42;103790.84;4981744;28;19937;-84
2022/01/12 09:16:12;;;;;;;;;;;;;;;19.82;40.29;103788.09;4990765;28;20453;-82
2022/01/12 09:18:37;;;;;;;;;;;;;;;19.83;40.21;103798.03;4986365;28;19980;-81
2022/01/12 09:21:03;;;;;;;;;;;;;;;19.84;40.32;103805.16;4988589;28;19926;-80
2022/01/12 09:23:28;;;;;;;;;;;;;;;19.85;40.21;103809.56;4993547;28;19957;-79
2022/01/12 09:25:54;;;;;;;;;;;;;;;19.87;40.32;103806.59;4987800;28;20353;-79
2022/01/12 09:28:19;;;;;;;;;;;;;;;19.88;40.25;103809.13;4984398;28;20032;-80
2022/01/12 09:30:44;;;;;;;;;;;;;;;19.90;40.28;103819.84;4987227;28;19922;-79
2022/01/12 09:33:10;;;;;;;;;;;;;;;19.89;40.33;103819.03;4986263;28;20362;-79
2022/01/12 09:35:35;;;;;;;;;;;;;;;19.91;40.31;103823.44;5007808;28;19956;-81
2022/01/12 09:38:01;;;;;;;;;;;;;;;19.92;40.12;103825.97;4991177;28;19922;-79
2022/01/12 09:40:26;;;;;;;;;;;;;;;19.93;40.18;103832.28;4988547;28;20418;-81
2022/01/12 09:42:53;;;;;;;;;;;;;;;19.93;40.28;103829.53;4980020;28;20412;-81
2022/01/12 09:45:19;;;;;;;;;;;;;;;19.95;40.21;103821.91;4985659;28;19925;-81
2022/01/12 09:47:45;;;;;;;;;;;;;;;19.95;40.15;103816.44;4992063;28;20016;-81
2022/01/12 09:50:11;;;;;;;;;;;;;;;19.96;40.08;103820.84;4993094;28;19926;-80
2022/01/12 09:52:36;;;;;;;;;;;;;;;19.97;40.10;103823.34;5007147;28;19925;-81
2022/01/12 09:55:01;;;;;;;;;;;;;;;19.97;40.32;103822.53;4982657;28;19922;-81
2022/01/12 09:57:27;;;;;;;;;;;;;;;19.98;40.13;103830.53;4982913;28;19917;-80
2022/01/12 09:59:52;;;;;;;;;;;;;;;19.99;40.18;103836.84;4981248;28;19922;-82
2022/01/12 10:02:18;;;;;;;;;;;;;;;20.00;40.31;103838.53;4992635;28;20009;-81
2022/01/12 10:04:44;;;;;;;;;;;;;;;20.01;40.20;103840.22;5009133;28;19922;-84
2022/01/12 10:07:11;;;;;;;;;;;;;;;20.02;40.29;103842.72;5005036;28;20538;-85
2022/01/12 10:09:41;;;;;;;;;;;;;;;20.03;40.01;103843.53;4980907;28;19926;-82
2022/01/12 10:12:16;;;;;;;;;;;;;;;20.04;39.94;103845.22;4984229;28;19929;-81
2022/01/12 10:14:46;;;;;;;;;;;;;;;20.04;40.15;103851.56;4991572;28;19922;-80
2022/01/12 10:17:12;;;;;;;;;;;;;;;20.06;40.22;103845.84;4981939;28;19976;-81
2022/01/12 10:19:37;;;;;;;;;;;;;;;20.07;40.18;103850.25;4987417;28;19928;-81
2022/01/12 10:22:14;;;;;;;;;;;;;;;20.07;40.15;103853.00;4989110;28;20290;-80
2022/01/12 10:24:44;;;;;;;;;;;;;;;20.08;40.14;103861.00;4992136;28;20362;-86
2022/01/12 10:27:14;;;;;;;;;;;;;;;20.09;40.20;103848.13;4998030;28;19929;-84
2022/01/12 10:29:39;;;;;;;;;;;;;;;20.09;40.14;103846.22;4987561;28;20314;-81
2022/01/12 10:32:05;;;;;;;;;;;;;;;20.10;40.03;103845.13;4982749;28;19922;-83
2022/01/12 10:34:37;;;;;;;;;;;;;;;20.11;40.08;103851.47;4988058;28;20016;-83
2022/01/12 10:37:05;;;;;;;;;;;;;;;20.13;40.09;103849.31;5006952;28;19972;-79
2022/01/12 10:39:30;;;;;;;;;;;;;;;20.13;40.02;103843.81;4982749;28;19918;-82
2022/01/12 10:41:58;;;;;;;;;;;;;;;20.13;40.07;103846.56;4985574;28;19933;-83
2022/01/12 10:44:27;;;;;;;;;;;;;;;20.14;39.98;103844.69;4992377;28;19918;-81
2022/01/12 10:47:26;;;;;;;;;;;;;;;20.15;39.87;103843.59;4993092;28;20286;-81
2022/01/12 10:49:55;;;;;;;;;;;;;;;20.17;40.01;103838.72;4992237;28;19929;-81
2022/01/12 10:52:24;;;;;;;;;;;;;;;20.16;39.93;103837.91;4980109;28;19926;-86
2022/01/12 10:54:53;;;;;;;;;;;;;;;20.16;39.97;103845.28;4980032;28;19933;-81
2022/01/12 10:57:26;;;;;;;;;;;;;;;20.18;40.05;103843.97;4988625;28;19922;-81
2022/01/12 11:00:28;;;;;;;;;;;;;;;20.19;40.06;103839.34;5007891;28;20036;-82
2022/01/12 11:02:55;;;;;;;;;;;;;;;20.19;39.98;103842.91;4989152;28;19930;-82
2022/01/12 11:05:28;;;;;;;;;;;;;;;20.20;40.24;103852.81;4991234;28;19922;-83
2022/01/12 11:07:53;;;;;;;;;;;;;;;20.21;40.02;103845.41;4991938;28;19922;-82
2022/01/12 11:10:20;;;;;;;;;;;;;;;20.21;39.76;103846.28;4983905;28;19922;-83
2022/01/12 11:12:46;;;;;;;;;;;;;;;20.22;39.91;103847.94;4984090;28;19932;-83
2022/01/12 11:15:12;;;;;;;;;;;;;;;20.23;40.01;103848.75;4977858;28;19961;-84
2022/01/12 11:17:38;;;;;;;;;;;;;;;20.22;39.82;103849.84;4984795;28;20008;-82
2022/01/12 11:20:06;;;;;;;;;;;;;;;20.23;40.01;103849.59;4990454;28;19928;-82
2022/01/12 11:22:50;;;;;;;;;;;;;;;20.23;39.95;103848.75;4983884;28;19964;-82
2022/01/12 11:25:17;;;;;;;;;;;;;;;20.23;39.84;103854.25;4985521;28;20572;-82
2022/01/12 11:27:43;;;;;;;;;;;;;;;20.23;39.92;103857.00;4994624;28;19933;-82
2022/01/12 11:30:18;;;;;;;;;;;;;;;20.23;39.88;103859.75;4991447;28;19926;-82
2022/01/12 11:32:54;;;;;;;;;;;;;;;20.23;39.68;103852.34;4986536;28;19977;-82
2022/01/12 11:35:24;;;;;;;;;;;;;;;20.23;39.89;103855.09;4983363;28;19923;-82
2022/01/12 11:37:49;;;;;;;;;;;;;;;20.24;39.99;103850.47;4983916;28;20289;-83
2022/01/12 11:40:15;;;;;;;;;;;;;;;20.23;39.90;103863.31;4988265;28;19933;-82
2022/01/12 11:42:40;;;;;;;;;;;;;;;20.24;39.90;103855.94;4990508;28;19993;-80
2022/01/12 11:45:05;;;;;;;;;;;;;;;20.24;39.94;103851.28;4987418;28;20434;-79
2022/01/12 11:47:31;;;;;;;;;;;;;;;20.26;39.96;103854.66;4988699;28;19921;-79
2022/01/12 11:49:57;;;;;;;;;;;;;;;20.26;39.95;103854.66;4982670;28;19926;-82
2022/01/12 11:52:25;;;;;;;;;;;;;;;20.28;39.99;103848.91;4985144;28;19918;-81
2022/01/12 11:54:53;;;;;;;;;;;;;;;20.29;39.97;103843.19;4992832;28;19930;-80
2022/01/12 11:57:29;;;;;;;;;;;;;;;20.30;39.98;103844.03;4983065;28;19925;-81
2022/01/12 12:00:00;;;;;;;;;;;;;;;20.31;40.19;103845.72;4981569;28;20302;-81
2022/01/12 12:02:36;;;;;;;;;;;;;;;20.32;39.96;103850.94;4987604;28;19921;-81
2022/01/12 12:05:06;;;;;;;;;;;;;;;20.35;40.03;103848.81;5002610;28;20638;-91
2022/01/12 12:07:41;;;;;;;;;;;;;;;20.37;39.89;103846.69;4988955;28;20008;-82
2022/01/12 12:10:11;;;;;;;;;;;;;;;20.38;40.07;103842.84;4991166;28;19922;-82
2022/01/12 12:12:37;;;;;;;;;;;;;;;20.41;39.92;103843.25;5005271;28;19925;-82
2022/01/12 12:15:06;;;;;;;;;;;;;;;20.43;40.12;103843.00;4992496;28;19930;-80
2022/01/12 12:17:33;;;;;;;;;;;;;;;20.45;40.06;103843.59;5009918;28;19948;-81
2022/01/12 12:19:59;;;;;;;;;;;;;;;20.46;40.38;103851.63;4986074;28;19924;-79
2022/01/12 12:22:26;;;;;;;;;;;;;;;20.48;40.03;103841.22;4985847;28;19922;-80
2022/01/12 12:24:53;;;;;;;;;;;;;;;20.50;40.25;103840.97;4982453;28;19980;-80
2022/01/12 12:27:19;;;;;;;;;;;;;;;20.53;40.11;103846.00;4991561;28;19978;-79
2022/01/12 12:29:45;;;;;;;;;;;;;;;20.55;40.23;103843.91;4987629;28;19925;-80
2022/01/12 12:32:13;;;;;;;;;;;;;;;20.56;40.24;103848.31;4998068;28;19929;-79
2022/01/12 12:34:39;;;;;;;;;;;;;;;20.58;40.19;103837.94;4987351;28;19938;-78
2022/01/12 12:37:06;;;;;;;;;;;;;;;20.60;40.23;103834.97;5001233;28;19922;-79
2022/01/12 12:39:32;;;;;;;;;;;;;;;20.62;40.28;103828.16;5002293;28;20397;-80
2022/01/12 12:41:58;;;;;;;;;;;;;;;20.63;40.32;103829.81;4983677;28;19919;-79
2022/01/12 12:44:25;;;;;;;;;;;;;;;20.66;40.07;103828.50;4989860;28;19940;-79
2022/01/12 12:46:51;;;;;;;;;;;;;;;20.66;40.17;103826.63;4981796;28;19961;-82
2022/01/12 12:49:17;;;;;;;;;;;;;;;20.69;40.20;103822.56;4987472;28;19952;-83
2022/01/12 12:51:42;;;;;;;;;;;;;;;20.69;40.03;103819.81;4997991;28;19928;-80
2022/01/12 12:54:07;;;;;;;;;;;;;;;20.72;40.37;103819.34;4988477;28;20037;-81
2022/01/12 12:56:40;;;;;;;;;;;;;;;20.72;40.35;103817.41;4989288;28;19929;-81
2022/01/12 12:59:07;;;;;;;;;;;;;;;20.74;40.30;103811.72;4987587;28;19922;-81
2022/01/12 13:01:32;;;;;;;;;;;;;;;20.75;40.32;103805.94;4987889;28;19926;-80
2022/01/12 13:03:59;;;;;;;;;;;;;;;20.77;39.96;103813.13;4987705;28;19965;-80
2022/01/12 13:06:28;;;;;;;;;;;;;;;20.75;39.86;103814.19;4974006;28;19933;-83
2022/01/12 13:08:54;;;;;;;;;;;;;;;20.75;39.84;103816.13;4997741;28;20370;-81
2022/01/12 13:11:26;;;;;;;;;;;;;;;20.74;40.06;103826.28;4987051;28;19921;-83
2022/01/12 13:13:55;;;;;;;;;;;;;;;20.75;39.74;103821.59;4985061;28;19930;-81
2022/01/12 13:16:20;;;;;;;;;;;;;;;20.75;40.01;103821.59;4983829;28;19972;-81
2022/01/12 13:18:49;;;;;;;;;;;;;;;20.73;39.98;103824.56;4989168;28;19922;-81
2022/01/12 13:21:16;;;;;;;;;;;;;;;20.74;39.88;103828.19;4973077;28;19926;-81
2022/01/12 13:23:45;;;;;;;;;;;;;;;20.73;39.66;103829.25;4990096;28;19918;-81
2022/01/12 13:26:12;;;;;;;;;;;;;;;20.74;39.64;103834.50;4985207;28;19918;-80
2022/01/12 13:28:38;;;;;;;;;;;;;;;20.73;39.62;103840.22;5002248;28;19922;-79
2022/01/12 13:31:04;;;;;;;;;;;;;;;20.73;39.56;103838.31;4996027;28;19922;-76
2022/01/12 13:33:32;;;;;;;;;;;;;;;20.72;39.72;103835.81;4987622;28;20005;-81
2022/01/12 13:35:58;;;;;;;;;;;;;;;20.72;39.58;103833.91;4990505;28;19928;-82
2022/01/12 13:38:30;;;;;;;;;;;;;;;20.73;39.50;103834.72;4987016;28;20042;-82
2022/01/12 13:41:04;;;;;;;;;;;;;;;20.72;39.64;103846.81;4980907;28;19936;-80